Spring Creek, South Dakota
Current Conditions -  °F | °C
As of 8:52 AM on Monday 24 Nov 2014 (Local Time) from KVTN Reporting Station
Clear Clear  
Wind Chill: -12°   Ceiling: Unl
Heat Index: -5°   Visibility: 10mi
Dew Point: -9°   Wind: 14mph
Humidity: 72%   Direction: 310°NW
Pressure: 29.81"   Gusts: 21mph
Location:  43.1381°N, 100.965°W
Report Text: KVTN 241452Z AUTO 31012G18KT 10SM CLR M05/M09 A2981 RMK AO2 SLP124 T10501094 51024
Loading
Personal Weather Stations






























Interactive Weather Map New forecast layout! Learn more

10-Day Weather Forecast

Advertisements
Track Severe Weather on mobile